sensor_id;sensor_type;location;lat;lon;timestamp;temperature;humidity
63407;SHT31;49543;45.892;10.838;2024-01-11T08:46:29;3.98;88.86
63407;SHT31;49543;45.892;10.838;2024-01-11T09:57:11;6.66;76.81
63407;SHT31;49543;45.892;10.838;2024-01-11T09:59:37;6.73;76.33
63407;SHT31;49543;45.892;10.838;2024-01-11T10:02:03;6.83;76.50
63407;SHT31;49543;45.892;10.838;2024-01-11T10:04:29;6.98;76.57
63407;SHT31;49543;45.892;10.838;2024-01-11T10:06:55;7.12;76.34
63407;SHT31;49543;45.892;10.838;2024-01-11T10:09:21;7.23;75.77
63407;SHT31;49543;45.892;10.838;2024-01-11T10:11:48;7.29;75.33
63407;SHT31;49543;45.892;10.838;2024-01-11T10:14:14;7.35;75.26
63407;SHT31;49543;45.892;10.838;2024-01-11T10:16:43;7.49;74.98
63407;SHT31;49543;45.892;10.838;2024-01-11T10:19:09;7.63;74.95
63407;SHT31;49543;45.892;10.838;2024-01-11T10:21:38;7.83;74.68
63407;SHT31;49543;45.892;10.838;2024-01-11T10:24:04;8.12;73.77
63407;SHT31;49543;45.892;10.838;2024-01-11T10:26:30;8.31;72.92
63407;SHT31;49543;45.892;10.838;2024-01-11T10:28:59;8.50;72.12
63407;SHT31;49543;45.892;10.838;2024-01-11T10:31:28;8.56;70.91
63407;SHT31;49543;45.892;10.838;2024-01-11T10:33:54;8.59;71.26
63407;SHT31;49543;45.892;10.838;2024-01-11T10:36:19;8.83;69.11
63407;SHT31;49543;45.892;10.838;2024-01-11T10:38:46;8.76;69.37
63407;SHT31;49543;45.892;10.838;2024-01-11T10:41:18;8.77;69.36
63407;SHT31;49543;45.892;10.838;2024-01-11T10:43:44;8.87;69.45
63407;SHT31;49543;45.892;10.838;2024-01-11T10:46:12;8.97;69.26
63407;SHT31;49543;45.892;10.838;2024-01-11T10:48:39;9.05;69.40
63407;SHT31;49543;45.892;10.838;2024-01-11T10:51:08;9.31;68.54
63407;SHT31;49543;45.892;10.838;2024-01-11T10:53:45;9.43;67.52
63407;SHT31;49543;45.892;10.838;2024-01-11T10:56:11;9.59;67.69
63407;SHT31;49543;45.892;10.838;2024-01-11T10:58:40;9.70;68.16
63407;SHT31;49543;45.892;10.838;2024-01-11T11:01:06;9.84;65.84
63407;SHT31;49543;45.892;10.838;2024-01-11T11:03:35;9.80;67.32
63407;SHT31;49543;45.892;10.838;2024-01-11T11:06:01;9.89;67.32
63407;SHT31;49543;45.892;10.838;2024-01-11T11:08:28;9.91;66.33
63407;SHT31;49543;45.892;10.838;2024-01-11T11:10:57;10.04;65.33
63407;SHT31;49543;45.892;10.838;2024-01-11T11:13:23;9.90;66.12
63407;SHT31;49543;45.892;10.838;2024-01-11T11:15:49;9.97;66.34
63407;SHT31;49543;45.892;10.838;2024-01-11T11:18:15;10.00;66.74
63407;SHT31;49543;45.892;10.838;2024-01-11T11:20:42;10.07;66.76
63407;SHT31;49543;45.892;10.838;2024-01-11T11:23:08;10.17;66.32
63407;SHT31;49543;45.892;10.838;2024-01-11T11:25:35;10.35;64.69
63407;SHT31;49543;45.892;10.838;2024-01-11T11:28:00;10.27;65.65
63407;SHT31;49543;45.892;10.838;2024-01-11T11:30:38;10.37;64.74
63407;SHT31;49543;45.892;10.838;2024-01-11T11:33:18;10.39;64.24
63407;SHT31;49543;45.892;10.838;2024-01-11T11:35:47;10.46;64.82
63407;SHT31;49543;45.892;10.838;2024-01-11T11:38:26;10.51;65.80
63407;SHT31;49543;45.892;10.838;2024-01-11T11:40:52;10.58;65.94
63407;SHT31;49543;45.892;10.838;2024-01-11T11:43:21;10.69;65.68
63407;SHT31;49543;45.892;10.838;2024-01-11T11:45:49;10.75;65.88
63407;SHT31;49543;45.892;10.838;2024-01-11T11:51:10;10.89;65.99
63407;SHT31;49543;45.892;10.838;2024-01-11T11:53:37;10.95;66.14
63407;SHT31;49543;45.892;10.838;2024-01-11T11:56:05;11.00;65.75
63407;SHT31;49543;45.892;10.838;2024-01-11T11:58:36;11.07;65.66
63407;SHT31;49543;45.892;10.838;2024-01-11T12:01:03;11.17;66.06
63407;SHT31;49543;45.892;10.838;2024-01-11T12:03:36;11.25;65.45
63407;SHT31;49543;45.892;10.838;2024-01-11T12:06:06;11.36;63.46
63407;SHT31;49543;45.892;10.838;2024-01-11T12:08:34;11.36;62.39
63407;SHT31;49543;45.892;10.838;2024-01-11T12:11:04;11.36;62.40
63407;SHT31;49543;45.892;10.838;2024-01-11T12:13:31;11.39;62.34
63407;SHT31;49543;45.892;10.838;2024-01-11T12:15:57;11.39;62.37
63407;SHT31;49543;45.892;10.838;2024-01-11T12:18:22;11.41;61.15
63407;SHT31;49543;45.892;10.838;2024-01-11T12:20:48;11.44;61.47
63407;SHT31;49543;45.892;10.838;2024-01-11T12:23:13;11.41;61.68
63407;SHT31;49543;45.892;10.838;2024-01-11T12:25:40;11.42;62.07
63407;SHT31;49543;45.892;10.838;2024-01-11T12:28:06;11.46;63.52
63407;SHT31;49543;45.892;10.838;2024-01-11T12:30:32;11.55;64.50
63407;SHT31;49543;45.892;10.838;2024-01-11T12:32:58;11.44;63.67
63407;SHT31;49543;45.892;10.838;2024-01-11T12:35:26;11.21;64.99
63407;SHT31;49543;45.892;10.838;2024-01-11T12:38:00;10.80;66.38
63407;SHT31;49543;45.892;10.838;2024-01-11T12:40:27;10.56;68.06
63407;SHT31;49543;45.892;10.838;2024-01-11T17:01:27;6.28;77.87
63407;SHT31;49543;45.892;10.838;2024-01-11T17:03:53;6.24;78.05
63407;SHT31;49543;45.892;10.838;2024-01-11T17:06:18;6.24;78.30
63407;SHT31;49543;45.892;10.838;2024-01-11T17:08:48;6.21;78.63
63407;SHT31;49543;45.892;10.838;2024-01-11T17:11:14;6.21;78.45
63407;SHT31;49543;45.892;10.838;2024-01-11T17:13:39;6.14;77.82
63407;SHT31;49543;45.892;10.838;2024-01-11T17:16:05;6.07;77.66
63407;SHT31;49543;45.892;10.838;2024-01-11T17:18:34;6.08;77.75
63407;SHT31;49543;45.892;10.838;2024-01-11T17:21:01;6.07;77.69
63407;SHT31;49543;45.892;10.838;2024-01-11T17:23:26;6.04;77.95
63407;SHT31;49543;45.892;10.838;2024-01-11T17:25:52;6.00;77.99
63407;SHT31;49543;45.892;10.838;2024-01-11T17:28:17;5.95;77.97
63407;SHT31;49543;45.892;10.838;2024-01-11T17:30:43;5.93;78.15
63407;SHT31;49543;45.892;10.838;2024-01-11T17:33:08;5.93;78.48
63407;SHT31;49543;45.892;10.838;2024-01-11T17:35:34;5.89;78.48
63407;SHT31;49543;45.892;10.838;2024-01-11T17:38:00;5.90;78.43
63407;SHT31;49543;45.892;10.838;2024-01-11T17:40:25;5.89;78.32
63407;SHT31;49543;45.892;10.838;2024-01-11T17:42:55;5.87;78.40
63407;SHT31;49543;45.892;10.838;2024-01-11T17:45:21;5.86;78.27
63407;SHT31;49543;45.892;10.838;2024-01-11T17:47:47;5.81;78.17
63407;SHT31;49543;45.892;10.838;2024-01-11T17:50:12;5.84;78.43
63407;SHT31;49543;45.892;10.838;2024-01-11T17:52:38;5.77;78.49
63407;SHT31;49543;45.892;10.838;2024-01-11T17:55:04;5.75;78.73
63407;SHT31;49543;45.892;10.838;2024-01-11T17:57:30;5.74;78.90
63407;SHT31;49543;45.892;10.838;2024-01-11T17:59:55;5.75;79.24
63407;SHT31;49543;45.892;10.838;2024-01-11T18:02:21;5.70;78.72
63407;SHT31;49543;45.892;10.838;2024-01-11T18:04:46;5.66;78.82
63407;SHT31;49543;45.892;10.838;2024-01-11T18:07:12;5.62;78.85
63407;SHT31;49543;45.892;10.838;2024-01-11T18:09:37;5.56;78.73
63407;SHT31;49543;45.892;10.838;2024-01-11T18:12:03;5.54;78.81
63407;SHT31;49543;45.892;10.838;2024-01-11T18:14:29;5.56;79.19
63407;SHT31;49543;45.892;10.838;2024-01-11T18:16:54;5.54;79.44
63407;SHT31;49543;45.892;10.838;2024-01-11T18:19:20;5.49;79.57
63407;SHT31;49543;45.892;10.838;2024-01-11T18:21:45;5.47;79.29
63407;SHT31;49543;45.892;10.838;2024-01-11T18:24:12;5.46;79.22
63407;SHT31;49543;45.892;10.838;2024-01-11T18:26:39;5.42;79.47
63407;SHT31;49543;45.892;10.838;2024-01-11T18:29:04;5.42;79.52
63407;SHT31;49543;45.892;10.838;2024-01-11T18:31:30;5.40;79.36
63407;SHT31;49543;45.892;10.838;2024-01-11T18:33:55;5.43;79.50
63407;SHT31;49543;45.892;10.838;2024-01-11T18:36:22;5.42;79.92
63407;SHT31;49543;45.892;10.838;2024-01-11T18:38:48;5.44;80.03
63407;SHT31;49543;45.892;10.838;2024-01-11T18:41:13;5.42;79.91
63407;SHT31;49543;45.892;10.838;2024-01-11T18:43:39;5.40;79.64
63407;SHT31;49543;45.892;10.838;2024-01-11T18:46:05;5.42;79.79
63407;SHT31;49543;45.892;10.838;2024-01-11T18:48:35;5.39;79.67
63407;SHT31;49543;45.892;10.838;2024-01-11T18:51:01;5.32;79.37
63407;SHT31;49543;45.892;10.838;2024-01-11T18:53:29;5.31;79.58
63407;SHT31;49543;45.892;10.838;2024-01-11T18:55:54;5.26;79.68
63407;SHT31;49543;45.892;10.838;2024-01-11T18:58:22;5.28;79.90
63407;SHT31;49543;45.892;10.838;2024-01-11T19:00:47;5.22;79.83
63407;SHT31;49543;45.892;10.838;2024-01-11T19:03:13;5.22;79.84
63407;SHT31;49543;45.892;10.838;2024-01-11T19:05:40;5.19;80.18
63407;SHT31;49543;45.892;10.838;2024-01-11T19:08:06;5.16;80.38
63407;SHT31;49543;45.892;10.838;2024-01-11T19:10:31;5.14;80.19
63407;SHT31;49543;45.892;10.838;2024-01-11T19:12:57;5.12;80.42
63407;SHT31;49543;45.892;10.838;2024-01-11T19:15:23;5.14;80.53
63407;SHT31;49543;45.892;10.838;2024-01-11T19:17:48;5.08;80.44
63407;SHT31;49543;45.892;10.838;2024-01-11T19:20:14;5.11;80.46
63407;SHT31;49543;45.892;10.838;2024-01-11T19:22:40;5.12;80.57
63407;SHT31;49543;45.892;10.838;2024-01-11T19:25:05;5.08;80.39
63407;SHT31;49543;45.892;10.838;2024-01-11T19:27:33;5.08;80.45
63407;SHT31;49543;45.892;10.838;2024-01-11T19:29:58;5.07;80.37
63407;SHT31;49543;45.892;10.838;2024-01-11T19:32:29;5.02;80.29
63407;SHT31;49543;45.892;10.838;2024-01-11T19:34:55;5.02;80.45
63407;SHT31;49543;45.892;10.838;2024-01-11T19:37:21;5.01;80.51
63407;SHT31;49543;45.892;10.838;2024-01-11T19:39:46;4.97;80.62
63407;SHT31;49543;45.892;10.838;2024-01-11T19:42:16;4.99;80.50
63407;SHT31;49543;45.892;10.838;2024-01-11T19:44:42;4.95;80.43
63407;SHT31;49543;45.892;10.838;2024-01-11T19:47:14;4.95;80.45
63407;SHT31;49543;45.892;10.838;2024-01-11T19:49:40;4.91;80.43
63407;SHT31;49543;45.892;10.838;2024-01-11T19:52:06;4.91;80.56
63407;SHT31;49543;45.892;10.838;2024-01-11T19:54:31;4.87;80.70
63407;SHT31;49543;45.892;10.838;2024-01-11T19:56:57;4.83;80.62
63407;SHT31;49543;45.892;10.838;2024-01-11T19:59:22;4.83;80.67
63407;SHT31;49543;45.892;10.838;2024-01-11T20:01:49;4.80;80.96
63407;SHT31;49543;45.892;10.838;2024-01-11T20:04:15;4.78;80.85
63407;SHT31;49543;45.892;10.838;2024-01-11T20:06:41;4.78;80.99
63407;SHT31;49543;45.892;10.838;2024-01-11T20:09:08;4.81;81.13
63407;SHT31;49543;45.892;10.838;2024-01-11T20:11:36;4.73;80.73
63407;SHT31;49543;45.892;10.838;2024-01-11T20:14:04;4.66;80.88
63407;SHT31;49543;45.892;10.838;2024-01-11T20:16:32;4.64;81.33
63407;SHT31;49543;45.892;10.838;2024-01-11T20:18:58;4.60;81.36
63407;SHT31;49543;45.892;10.838;2024-01-11T20:21:24;4.60;81.30
63407;SHT31;49543;45.892;10.838;2024-01-11T20:23:50;4.59;81.43
63407;SHT31;49543;45.892;10.838;2024-01-11T20:26:15;4.56;81.64
63407;SHT31;49543;45.892;10.838;2024-01-11T20:28:41;4.54;81.56
63407;SHT31;49543;45.892;10.838;2024-01-11T20:31:07;4.53;81.62
63407;SHT31;49543;45.892;10.838;2024-01-11T20:33:35;4.53;81.60
63407;SHT31;49543;45.892;10.838;2024-01-11T20:36:01;4.48;81.50
63407;SHT31;49543;45.892;10.838;2024-01-11T20:38:28;4.49;81.57
63407;SHT31;49543;45.892;10.838;2024-01-11T20:40:55;4.52;81.61
63407;SHT31;49543;45.892;10.838;2024-01-11T20:43:21;4.49;81.64
63407;SHT31;49543;45.892;10.838;2024-01-11T20:45:46;4.46;81.66
63407;SHT31;49543;45.892;10.838;2024-01-11T20:48:12;4.46;81.71
63407;SHT31;49543;45.892;10.838;2024-01-11T20:50:37;4.46;81.60
63407;SHT31;49543;45.892;10.838;2024-01-11T20:53:03;4.45;81.71
63407;SHT31;49543;45.892;10.838;2024-01-11T20:55:30;4.46;81.63
63407;SHT31;49543;45.892;10.838;2024-01-11T20:57:56;4.42;81.69
63407;SHT31;49543;45.892;10.838;2024-01-11T21:00:21;4.36;81.90
63407;SHT31;49543;45.892;10.838;2024-01-11T21:02:48;4.39;82.07
63407;SHT31;49543;45.892;10.838;2024-01-11T21:05:16;4.39;82.21
63407;SHT31;49543;45.892;10.838;2024-01-11T21:07:42;4.35;82.08
63407;SHT31;49543;45.892;10.838;2024-01-11T21:10:08;4.36;82.02
63407;SHT31;49543;45.892;10.838;2024-01-11T21:12:33;4.35;82.16
63407;SHT31;49543;45.892;10.838;2024-01-11T21:14:59;4.35;82.20
63407;SHT31;49543;45.892;10.838;2024-01-11T21:17:25;4.33;82.28
63407;SHT31;49543;45.892;10.838;2024-01-11T21:19:50;4.36;82.44
63407;SHT31;49543;45.892;10.838;2024-01-11T21:22:17;4.39;82.48
63407;SHT31;49543;45.892;10.838;2024-01-11T21:24:43;4.36;82.25
63407;SHT31;49543;45.892;10.838;2024-01-11T21:27:09;4.35;82.23
63407;SHT31;49543;45.892;10.838;2024-01-11T21:29:35;4.32;82.09
63407;SHT31;49543;45.892;10.838;2024-01-11T21:32:00;4.28;82.06
63407;SHT31;49543;45.892;10.838;2024-01-11T21:37:55;4.28;82.25
63407;SHT31;49543;45.892;10.838;2024-01-11T21:40:22;4.26;82.34
63407;SHT31;49543;45.892;10.838;2024-01-11T21:42:47;4.31;82.59
63407;SHT31;49543;45.892;10.838;2024-01-11T21:45:13;4.29;82.69
63407;SHT31;49543;45.892;10.838;2024-01-11T21:47:39;4.28;82.54
63407;SHT31;49543;45.892;10.838;2024-01-11T21:50:05;4.29;82.49
63407;SHT31;49543;45.892;10.838;2024-01-11T21:52:31;4.29;82.38
63407;SHT31;49543;45.892;10.838;2024-01-11T21:54:57;4.28;82.32
63407;SHT31;49543;45.892;10.838;2024-01-11T21:57:22;4.25;82.04
63407;SHT31;49543;45.892;10.838;2024-01-11T21:59:48;4.21;82.04
63407;SHT31;49543;45.892;10.838;2024-01-11T22:02:14;4.19;82.10
63407;SHT31;49543;45.892;10.838;2024-01-11T22:04:40;4.13;82.18
63407;SHT31;49543;45.892;10.838;2024-01-11T22:07:06;4.09;82.16
63407;SHT31;49543;45.892;10.838;2024-01-11T22:09:32;4.09;82.23
63407;SHT31;49543;45.892;10.838;2024-01-11T22:11:58;4.08;82.38
63407;SHT31;49543;45.892;10.838;2024-01-11T22:14:26;4.09;82.48
63407;SHT31;49543;45.892;10.838;2024-01-11T22:16:52;4.09;82.43
63407;SHT31;49543;45.892;10.838;2024-01-11T22:19:17;4.09;82.45
63407;SHT31;49543;45.892;10.838;2024-01-11T22:21:43;4.05;82.34
63407;SHT31;49543;45.892;10.838;2024-01-11T22:24:09;4.01;82.38
63407;SHT31;49543;45.892;10.838;2024-01-11T22:26:34;4.01;82.40
63407;SHT31;49543;45.892;10.838;2024-01-11T22:29:00;3.99;82.53
63407;SHT31;49543;45.892;10.838;2024-01-11T22:31:35;3.98;82.38
63407;SHT31;49543;45.892;10.838;2024-01-11T22:34:01;3.95;82.32
63407;SHT31;49543;45.892;10.838;2024-01-11T22:36:27;3.94;82.42
63407;SHT31;49543;45.892;10.838;2024-01-11T22:38:54;3.94;82.66
63407;SHT31;49543;45.892;10.838;2024-01-11T22:41:20;3.94;82.28
63407;SHT31;49543;45.892;10.838;2024-01-11T22:43:46;3.90;82.30
63407;SHT31;49543;45.892;10.838;2024-01-11T22:46:11;3.85;82.55
63407;SHT31;49543;45.892;10.838;2024-01-11T22:48:37;3.84;82.72
63407;SHT31;49543;45.892;10.838;2024-01-11T22:51:06;3.85;82.83
63407;SHT31;49543;45.892;10.838;2024-01-11T22:53:32;3.84;82.99
63407;SHT31;49543;45.892;10.838;2024-01-11T22:55:58;3.83;82.89
63407;SHT31;49543;45.892;10.838;2024-01-11T22:58:24;3.84;82.76
63407;SHT31;49543;45.892;10.838;2024-01-11T23:00:49;3.83;82.78
63407;SHT31;49543;45.892;10.838;2024-01-11T23:03:15;3.81;82.91
63407;SHT31;49543;45.892;10.838;2024-01-11T23:05:41;3.78;82.71
63407;SHT31;49543;45.892;10.838;2024-01-11T23:08:06;3.77;82.91
63407;SHT31;49543;45.892;10.838;2024-01-11T23:10:32;3.75;82.96
63407;SHT31;49543;45.892;10.838;2024-01-11T23:13:00;3.70;82.84
63407;SHT31;49543;45.892;10.838;2024-01-11T23:15:26;3.70;83.03
